createdAt,value
2023-05-18T00:01:58.010Z,1019.29
2023-05-18T00:08:17.981Z,1019.29
2023-05-18T00:14:41.093Z,1019.25
2023-05-18T00:21:01.001Z,1019.27
2023-05-18T00:27:24.001Z,1019.27
2023-05-18T00:33:44.036Z,1019.27
2023-05-18T00:40:07.053Z,1019.33
2023-05-18T00:46:27.097Z,1019.31
2023-05-18T00:52:50.038Z,1019.29
2023-05-18T00:59:11.009Z,1019.31
2023-05-18T01:05:34.003Z,1019.25
2023-05-18T01:11:54.029Z,1019.21
2023-05-18T01:18:17.003Z,1019.19
2023-05-18T01:24:37.009Z,1019.21
2023-05-18T01:31:00.062Z,1019.17
2023-05-18T01:37:20.009Z,1019.17
2023-05-18T01:43:43.016Z,1019.17
2023-05-18T01:50:03.042Z,1019.17
2023-05-18T01:56:26.010Z,1019.21
2023-05-18T02:02:46.138Z,1019.21
2023-05-18T02:09:09.033Z,1019.19
2023-05-18T02:15:29.282Z,1019.25
2023-05-18T02:21:52.080Z,1019.23
2023-05-18T02:28:11.999Z,1019.25
2023-05-18T02:34:35.022Z,1019.23
2023-05-18T02:40:54.986Z,1019.29
2023-05-18T02:47:18.033Z,1019.29
2023-05-18T02:53:38.030Z,1019.33
2023-05-18T03:00:00.988Z,1019.35
2023-05-18T03:23:54.019Z,1019.37
2023-05-18T03:30:14.001Z,1019.37
2023-05-18T03:36:37.009Z,1019.39
2023-05-18T03:42:57.045Z,1019.39
2023-05-18T03:49:19.999Z,1019.43
2023-05-18T03:55:40.358Z,1019.47
2023-05-18T04:02:03.070Z,1019.51
2023-05-18T04:08:22.982Z,1019.47
2023-05-18T04:14:46.017Z,1019.49
2023-05-18T04:21:06.023Z,1019.49
2023-05-18T04:27:28.994Z,1019.51
2023-05-18T04:33:49.012Z,1019.51
2023-05-18T04:40:12.009Z,1019.53
2023-05-18T04:46:32.094Z,1019.57
2023-05-18T04:52:55.014Z,1019.6
2023-05-18T04:59:15.023Z,1019.66
2023-05-18T05:05:38.008Z,1019.66
2023-05-18T05:11:57.979Z,1019.7
2023-05-18T05:18:21.033Z,1019.72
2023-05-18T05:24:41.032Z,1019.74
2023-05-18T05:31:04.035Z,1019.8
2023-05-18T05:37:24.836Z,1019.82
2023-05-18T05:43:47.977Z,1019.84
2023-05-18T05:50:07.987Z,1019.86
2023-05-18T05:56:31.009Z,1019.84
2023-05-18T06:02:51.024Z,1019.86
2023-05-18T06:09:14.057Z,1019.88
2023-05-18T06:15:34.029Z,1019.9
2023-05-18T06:21:57.656Z,1019.9
2023-05-18T06:28:17.983Z,1019.98
2023-05-18T06:34:41.048Z,1020.09
2023-05-18T06:41:01.056Z,1020.09
2023-05-18T06:47:24.000Z,1020.09
2023-05-18T06:53:44.145Z,1020.13
2023-05-18T07:00:07.051Z,1020.13
2023-05-18T07:06:27.025Z,1020.09
2023-05-18T07:12:50.034Z,1020.09
2023-05-18T07:19:09.998Z,1020.07
2023-05-18T07:25:33.116Z,1020.06
2023-05-18T07:31:53.104Z,1020.06
2023-05-18T07:38:16.020Z,1020.04
2023-05-18T07:44:36.011Z,1020
2023-05-18T07:50:59.100Z,1019.94
2023-05-18T07:57:18.990Z,1019.92
2023-05-18T08:03:42.156Z,1019.9
2023-05-18T08:10:02.006Z,1019.88
2023-05-18T08:32:14.070Z,1019.7
2023-05-18T08:38:37.013Z,1019.64
2023-05-18T08:44:57.007Z,1019.59
2023-05-18T08:51:20.005Z,1019.59
2023-05-18T08:57:39.993Z,1019.55
2023-05-18T09:04:02.992Z,1019.51
2023-05-18T09:10:23.067Z,1019.55
2023-05-18T09:16:46.009Z,1019.53
2023-05-18T09:23:05.999Z,1019.49
2023-05-18T09:29:29.467Z,1019.47
2023-05-18T09:35:49.035Z,1019.47
2023-05-18T09:42:11.997Z,1019.43
2023-05-18T09:48:32.018Z,1019.39
2023-05-18T09:54:54.981Z,1019.37
2023-05-18T10:01:15.045Z,1019.39
2023-05-18T10:07:38.028Z,1019.35
2023-05-18T10:13:58.031Z,1019.25
2023-05-18T10:20:21.021Z,1019.21
2023-05-18T10:26:41.050Z,1019.12
2023-05-18T10:33:07.126Z,1019.06
2023-05-18T10:39:24.012Z,1019
2023-05-18T10:45:47.013Z,1018.92
2023-05-18T10:52:07.193Z,1018.88
2023-05-18T10:58:29.993Z,1018.8
2023-05-18T11:04:52.598Z,1018.74
2023-05-18T11:11:13.006Z,1018.69
2023-05-18T11:17:33.031Z,1018.63
2023-05-18T11:23:56.079Z,1018.63
2023-05-18T11:30:16.060Z,1018.53
2023-05-18T11:36:39.001Z,1018.47
2023-05-18T11:42:59.011Z,1018.41
2023-05-18T11:49:21.990Z,1018.43
2023-05-18T11:55:41.989Z,1018.41
2023-05-18T12:02:05.093Z,1018.27
2023-05-18T12:08:24.986Z,1018.19
2023-05-18T12:14:48.000Z,1018.11
2023-05-18T12:21:08.008Z,1018.03
2023-05-18T12:27:31.004Z,1018.05
2023-05-18T12:33:50.984Z,1017.99
2023-05-18T12:40:14.013Z,1017.89
2023-05-18T12:46:34.054Z,1017.89
2023-05-18T12:52:56.997Z,1017.81
2023-05-18T12:59:17.017Z,1017.78
2023-05-18T13:05:39.983Z,1017.7
2023-05-18T13:12:06.621Z,1017.66
2023-05-18T13:18:23.036Z,1017.58
2023-05-18T13:24:43.012Z,1017.56
2023-05-18T13:31:06.075Z,1017.52
2023-05-18T13:37:26.027Z,1017.48
2023-05-18T13:43:48.990Z,1017.38
2023-05-18T13:50:09.012Z,1017.31
2023-05-18T14:06:39.069Z,1017.13
2023-05-18T14:12:56.983Z,1017.09
2023-05-18T14:19:20.015Z,1017.03
2023-05-18T14:25:40.008Z,1016.9
2023-05-18T14:32:02.990Z,1016.88
2023-05-18T14:38:23.105Z,1016.76
2023-05-18T14:44:46.013Z,1016.7
2023-05-18T14:51:06.005Z,1016.6
2023-05-18T14:57:28.986Z,1016.62
2023-05-18T15:03:49.152Z,1016.58
2023-05-18T15:10:11.977Z,1016.56
2023-05-18T15:16:32.008Z,1016.54
2023-05-18T15:22:55.012Z,1016.52
2023-05-18T15:29:14.982Z,1016.5
2023-05-18T15:35:38.003Z,1016.5
2023-05-18T15:41:58.006Z,1016.45
2023-05-18T15:48:20.992Z,1016.39
2023-05-18T15:54:40.992Z,1016.37
2023-05-18T16:01:04.037Z,1016.33
2023-05-18T16:07:24.028Z,1016.27
2023-05-18T16:13:46.995Z,1016.27
2023-05-18T16:20:07.027Z,1016.25
2023-05-18T16:26:30.007Z,1016.25
2023-05-18T16:32:49.992Z,1016.23
2023-05-18T16:39:13.341Z,1016.19
2023-05-18T16:45:33.001Z,1016.15
2023-05-18T16:51:56.012Z,1016.15
2023-05-18T16:58:16.137Z,1016.11
2023-05-18T17:04:38.987Z,1016.15
2023-05-18T17:10:59.120Z,1016.11
2023-05-18T17:17:22.078Z,1016.07
2023-05-18T17:23:42.046Z,1016.03
2023-05-18T17:30:04.995Z,1016.03
2023-05-18T17:36:25.086Z,1015.98
2023-05-18T17:42:47.998Z,1015.94
2023-05-18T17:49:07.986Z,1015.88
2023-05-18T17:55:31.023Z,1015.86
2023-05-18T18:01:51.045Z,1015.9
2023-05-18T18:08:13.984Z,1015.96
2023-05-18T18:14:34.075Z,1016
2023-05-18T18:20:57.074Z,1016.03
2023-05-18T18:27:16.982Z,1016.01
2023-05-18T18:33:40.019Z,1016.07
2023-05-18T18:39:59.990Z,1016.11
2023-05-18T18:46:23.024Z,1016.17
2023-05-18T18:52:43.037Z,1016.19
2023-05-18T18:59:06.026Z,1016.25
2023-05-18T19:05:26.076Z,1016.31
2023-05-18T19:27:56.012Z,1016.6
2023-05-18T19:34:18.975Z,1016.7
2023-05-18T19:40:39.135Z,1016.86
2023-05-18T19:47:02.015Z,1016.9
2023-05-18T19:53:22.306Z,1016.97
2023-05-18T19:59:45.042Z,1017.03
2023-05-18T20:06:05.010Z,1017.09
2023-05-18T20:12:28.053Z,1017.17
2023-05-18T20:18:48.122Z,1017.31
2023-05-18T20:25:11.006Z,1017.34
2023-05-18T20:31:31.014Z,1017.42
2023-05-18T20:37:53.977Z,1017.5
2023-05-18T20:44:14.137Z,1017.56
2023-05-18T20:50:36.991Z,1017.58
2023-05-18T20:56:56.987Z,1017.64
2023-05-18T21:03:20.256Z,1017.64
2023-05-18T21:09:40.164Z,1017.68
2023-05-18T21:16:03.033Z,1017.7
2023-05-18T21:22:23.009Z,1017.78
2023-05-18T21:28:45.994Z,1017.8
2023-05-18T21:35:06.006Z,1017.85
2023-05-18T21:41:29.024Z,1017.83
2023-05-18T21:47:49.027Z,1017.8
2023-05-18T21:54:11.977Z,1017.8
2023-05-18T22:19:43.010Z,1017.83
2023-05-18T22:26:02.991Z,1017.87
2023-05-18T22:32:26.082Z,1017.81
2023-05-18T22:38:46.110Z,1017.8
2023-05-18T22:45:08.997Z,1017.8
2023-05-18T22:51:29.027Z,1017.81
2023-05-18T22:57:52.020Z,1017.8
2023-05-18T23:04:12.002Z,1017.8
2023-05-18T23:10:34.993Z,1017.83
2023-05-18T23:16:55.019Z,1017.83
2023-05-18T23:23:17.977Z,1017.83
2023-05-18T23:29:37.995Z,1017.83
2023-05-18T23:36:01.021Z,1017.83
2023-05-18T23:42:20.986Z,1017.85
2023-05-18T23:48:44.007Z,1017.85
2023-05-18T23:55:04.188Z,1017.8
